Time;durP1;ratioP1;P1;durP2;ratioP2;P2;SDS_P1;SDS_P2;PMS_P1;PMS_P2;Temp;Humidity;BMP_temperature;BMP_pressure;BME280_temperature;BME280_humidity;BME280_pressure;Samples;Min_cycle;Max_cycle;Signal;HPM_P1;HPM_P2
2022/04/09 00:00:41;;;;;;;1999.90;999.90;;;;;;;6.33;65.41;99120.69;15542934;28;20046;-53
2022/04/09 00:08:15;;;;;;;1999.90;999.90;;;;;;;6.30;65.62;99132.44;15541204;28;20046;-56
2022/04/09 00:15:47;;;;;;;1999.90;999.90;;;;;;;6.21;66.52;99131.72;15474928;28;20480;-54
2022/04/09 00:23:20;;;;;;;1999.90;999.90;;;;;;;6.28;66.77;99125.66;15516535;28;20047;-53
2022/04/09 00:30:53;;;;;;;1999.90;999.90;;;;;;;6.33;67.17;99133.72;15514667;28;20050;-55
2022/04/09 00:38:28;;;;;;;1999.90;999.90;;;;;;;6.50;66.90;99124.41;15560244;28;20054;-56
2022/04/09 00:46:02;;;;;;;1999.90;999.90;;;;;;;6.29;67.04;99136.38;15529043;28;20056;-54
2022/04/09 00:53:39;;;;;;;1999.90;999.90;;;;;;;6.73;65.73;99144.97;15467142;28;20046;-57
2022/04/09 01:01:12;;;;;;;1999.90;999.90;;;;;;;6.44;66.99;99148.75;15486863;28;20050;-57
2022/04/09 01:08:45;;;;;;;1999.90;999.90;;;;;;;6.57;66.33;99163.47;15497631;28;20051;-58
2022/04/09 01:16:18;;;;;;;1999.90;999.90;;;;;;;6.46;66.78;99167.78;15520934;28;20042;-58
2022/04/09 01:23:53;;;;;;;1999.90;999.90;;;;;;;6.50;66.30;99180.63;15539175;28;20042;-56
2022/04/09 01:31:26;;;;;;;1999.90;999.90;;;;;;;6.52;66.46;99189.41;15539911;28;20521;-57
2022/04/09 01:38:59;;;;;;;1999.90;999.90;;;;;;;6.45;66.67;99207.75;15538370;28;20030;-56
2022/04/09 01:46:33;;;;;;;1999.90;999.90;;;;;;;6.18;67.58;99198.91;15505474;28;20054;-56
2022/04/09 01:54:06;;;;;;;1999.90;999.90;;;;;;;6.38;67.27;99221.34;15512025;28;20061;-54
2022/04/09 02:01:38;;;;;;;;;;;;;;;6.33;67.41;99233.44;15500530;28;20082;-56
2022/04/09 02:09:13;;;;;;;1999.90;999.90;;;;;;;6.24;67.63;99236.28;15519400;28;19929;-54
2022/04/09 02:16:46;;;;;;;1999.90;999.90;;;;;;;6.01;68.62;99248.88;15503362;28;20134;-58
2022/04/09 02:24:20;;;;;;;1999.90;999.90;;;;;;;6.05;68.53;99252.63;15508551;28;20050;-57
2022/04/09 02:31:53;;;;;;;1999.90;999.90;;;;;;;5.94;68.92;99259.69;15516719;28;20069;-56
2022/04/09 02:39:27;;;;;;;1999.90;999.90;;;;;;;5.89;69.22;99279.25;15505287;28;20046;-58
2022/04/09 02:47:00;;;;;;;1999.90;999.90;;;;;;;6.16;68.84;99298.13;15478828;28;20451;-57
2022/04/09 02:54:34;;;;;;;1999.90;999.90;;;;;;;5.94;68.96;99307.59;15535121;28;20030;-58
2022/04/09 03:02:07;;;;;;;1999.90;999.90;;;;;;;5.78;69.80;99315.63;15493625;28;20053;-58
2022/04/09 03:09:40;;;;;;;1999.90;999.90;;;;;;;5.88;69.54;99331.03;15500878;28;20038;-56
2022/04/09 03:17:13;;;;;;;1999.90;999.90;;;;;;;5.72;70.41;99343.81;15550710;23;20038;-62
2022/04/09 03:24:48;;;;;;;1999.90;999.90;;;;;;;5.69;70.66;99355.56;15455155;28;20490;-63
2022/04/09 03:32:25;;;;;;;1999.90;999.90;;;;;;;5.34;72.09;99375.09;15440253;28;20446;-62
2022/04/09 03:39:59;;;;;;;1999.90;999.90;;;;;;;5.17;72.27;99383.41;15453987;28;20141;-63
2022/04/09 03:47:33;;;;;;;1999.90;999.90;;;;;;;5.34;71.89;99399.97;15470078;28;20065;-63
2022/04/09 03:55:08;;;;;;;1999.90;999.90;;;;;;;5.30;72.30;99415.59;15469279;28;20101;-61
2022/04/09 04:02:42;;;;;;;1999.90;999.90;;;;;;;5.27;72.82;99424.56;15459053;28;20092;-63
2022/04/09 04:10:20;;;;;;;1999.90;999.90;;;;;;;4.89;73.73;99444.59;15483709;28;20042;-63
2022/04/09 04:17:58;;;;;;;1999.90;999.90;;;;;;;5.10;73.42;99455.81;15483292;28;20400;-63
2022/04/09 04:25:36;;;;;;;1999.90;999.90;;;;;;;4.90;74.23;99479.41;15468343;28;20455;-58
2022/04/09 04:33:10;;;;;;;1999.90;999.90;;;;;;;5.04;73.31;99487.53;15467639;28;20120;-59
2022/04/09 04:40:49;;;;;;;1999.90;999.90;;;;;;;5.14;74.21;99503.00;15470992;28;20038;-58
2022/04/09 04:48:25;;;;;;;1999.90;999.90;;;;;;;5.17;73.75;99519.72;15478947;28;20064;-61
2022/04/09 04:56:01;;;;;;;1999.90;999.90;;;;;;;5.20;73.99;99538.44;15478337;28;20054;-60
2022/04/09 05:03:41;;;;;;;1999.90;999.90;;;;;;;5.17;73.83;99563.16;15477710;28;20112;-61
2022/04/09 05:11:37;;;;;;;1999.90;999.90;;;;;;;5.34;72.85;99578.97;15460773;28;20043;-58
2022/04/09 05:19:12;;;;;;;1999.90;999.90;;;;;;;5.62;72.52;99596.81;15476365;28;20155;-61
2022/04/09 05:26:50;;;;;;;1999.90;999.90;;;;;;;5.82;71.71;99611.13;15491698;28;20562;-59
2022/04/09 05:34:26;;;;;;;1999.90;999.90;;;;;;;5.83;71.20;99643.22;15477656;28;20055;-58
2022/04/09 05:42:00;;;;;;;1999.90;999.90;;;;;;;6.20;70.41;99655.56;15475034;28;20479;-60
2022/04/09 05:49:32;;;;;;;;;;;;;;;6.36;70.39;99676.06;15458630;28;20042;-59
2022/04/09 05:57:07;;;;;;;1999.90;999.90;;;;;;;6.41;70.83;99689.75;15489541;28;19991;-62
2022/04/09 06:04:43;;;;;;;1999.90;999.90;;;;;;;6.71;69.69;99717.53;15457938;28;20125;-63
2022/04/09 06:12:17;;;;;;;1999.90;999.90;;;;;;;6.53;69.20;99731.44;15472228;28;20046;-60
2022/04/09 06:20:01;;;;;;;1999.90;999.90;;;;;;;6.51;69.24;99753.13;15487698;28;20050;-60
2022/04/09 06:27:39;;;;;;;;;;;;;;;7.00;67.31;99756.41;15472026;28;20066;-61
2022/04/09 06:35:11;;;;;;;1999.90;999.90;;;;;;;7.76;64.76;99772.16;15487423;28;20032;-59
2022/04/09 06:42:46;;;;;;;1999.90;999.90;;;;;;;8.64;61.08;99774.69;15470527;28;20437;-62
2022/04/09 06:50:41;;;;;;;1999.90;999.90;;;;;;;8.52;62.40;99782.19;15470932;28;20065;-57
2022/04/09 06:58:15;;;;;;;1999.90;999.90;;;;;;;8.56;61.34;99803.44;15464348;28;20085;-56
2022/04/09 07:05:47;;;;;;;1999.90;999.90;;;;;;;8.77;61.29;99814.50;15483305;28;20047;-54
2022/04/09 07:13:20;;;;;;;1999.90;999.90;;;;;;;7.95;62.62;99816.16;15469410;28;20076;-53
2022/04/09 07:20:53;;;;;;;1999.90;999.90;;;;;;;7.41;64.58;99844.53;15486300;28;20070;-57
2022/04/09 07:28:26;;;;;;;1999.90;999.90;;;;;;;8.24;63.28;99848.66;15450313;28;20038;-58
2022/04/09 07:35:59;;;;;;;1999.90;999.90;;;;;;;8.78;62.29;99863.41;15452288;28;20046;-58
2022/04/09 07:43:32;;;;;;;1999.90;999.90;;;;;;;8.88;61.10;99882.47;15457536;28;20046;-56
2022/04/09 07:51:05;;;;;;;1999.90;999.90;;;;;;;9.07;59.85;99881.97;15466048;28;20565;-57
2022/04/09 07:58:38;;;;;;;1999.90;999.90;;;;;;;8.49;60.54;99891.31;15466309;28;20047;-56
2022/04/09 08:06:10;;;;;;;1999.90;999.90;;;;;;;8.32;60.62;99906.91;15467141;28;20420;-59
2022/04/09 08:13:44;;;;;;;1999.90;999.90;;;;;;;8.30;60.59;99906.47;15486356;28;20042;-59
2022/04/09 08:21:18;;;;;;;;;;;;;;;11.35;52.31;99928.19;15493442;28;20045;-52
2022/04/09 08:28:51;;;;;;;1999.90;999.90;;;;;;;10.14;51.82;99944.09;15513184;28;20350;-63
2022/04/09 08:36:24;;;;;;;1999.90;999.90;;;;;;;10.67;49.03;99943.00;15485246;28;20066;-61
2022/04/09 08:43:57;;;;;;;1999.90;999.90;;;;;;;11.35;47.66;99944.13;15492267;28;20049;-63
2022/04/09 08:51:29;;;;;;;1999.90;999.90;;;;;;;14.24;42.26;99954.16;15493155;28;20569;-59
2022/04/09 08:59:04;;;;;;;1999.90;999.90;;;;;;;13.39;44.47;99964.63;15491335;28;20126;-59
2022/04/09 09:06:40;;;;;;;1999.90;999.90;;;;;;;14.92;40.66;99962.44;15474299;28;20050;-62
2022/04/09 09:14:25;;;;;;;1999.90;999.90;;;;;;;13.53;40.68;99965.72;15493975;28;20073;-62
2022/04/09 09:21:59;;;;;;;1999.90;999.90;;;;;;;14.76;39.27;99955.38;15500533;23;20248;-73
2022/04/09 09:29:33;;;;;;;1999.90;999.90;;;;;;;14.22;40.25;99967.75;15548009;28;20096;-70
2022/04/09 09:37:06;;;;;;;1999.90;999.90;;;;;;;14.78;38.70;99962.22;15537733;28;20069;-70
2022/04/09 09:44:44;;;;;;;1999.90;999.90;;;;;;;14.22;38.06;99967.75;15513790;28;20133;-72
2022/04/09 09:52:16;;;;;;;1999.90;999.90;;;;;;;14.69;37.97;99970.94;15528527;28;20050;-72
2022/04/09 09:59:51;;;;;;;1999.90;999.90;;;;;;;15.82;37.38;99979.19;15528064;28;20145;-72
2022/04/09 10:07:24;;;;;;;1999.90;999.90;;;;;;;14.92;36.70;99975.66;15530231;28;20431;-73
2022/04/09 10:14:59;;;;;;;1999.90;999.90;;;;;;;16.49;36.01;99983.81;15529517;28;20045;-73
2022/04/09 10:22:35;;;;;;;1999.90;999.90;;;;;;;16.90;34.66;99973.25;15543157;28;20053;-73
2022/04/09 10:30:24;;;;;;;1999.90;999.90;;;;;;;15.14;36.53;99986.00;15531217;28;20046;-72
2022/04/09 10:38:22;;;;;;;1999.90;999.90;;;;;;;14.27;36.93;99987.88;15538862;28;20057;-71
2022/04/09 10:46:20;;;;;;;1999.90;999.90;;;;;;;14.30;37.36;99991.94;15518181;28;20058;-72
2022/04/09 10:53:53;;;;;;;1999.90;999.90;;;;;;;15.92;33.83;99976.84;15526343;28;20313;-72
2022/04/09 11:01:50;;;;;;;1999.90;999.90;;;;;;;16.20;33.89;99982.75;15517090;28;20469;-73
2022/04/09 11:09:22;;;;;;;1999.90;999.90;;;;;;;13.84;36.46;99987.13;15553794;28;20037;-72
2022/04/09 11:16:56;;;;;;;1999.90;999.90;;;;;;;15.83;36.47;99980.78;15532806;28;20052;-72
2022/04/09 11:24:36;;;;;;;;;;;;;;;13.97;37.38;99989.78;15549495;28;20053;-71
2022/04/09 11:32:18;;;;;;;1999.90;999.90;;;;;;;13.82;37.55;99991.50;15536835;28;20549;-71
2022/04/09 11:39:52;;;;;;;1999.90;999.90;;;;;;;15.68;34.71;99990.28;15527756;28;20104;-71
2022/04/09 11:47:25;;;;;;;1999.90;999.90;;;;;;;13.38;38.35;100002.25;15503355;28;20041;-71
2022/04/09 11:55:01;;;;;;;;;;;;;;;13.26;40.02;100003.22;15529210;28;20562;-71
2022/04/09 12:02:36;;;;;;;1999.90;999.90;;;;;;;14.82;37.48;99991.19;15532079;28;20440;-71
2022/04/09 12:10:23;;;;;;;1999.90;999.90;;;;;;;14.84;37.77;99996.41;15534851;28;20131;-72
2022/04/09 12:17:57;;;;;;;1999.90;999.90;;;;;;;15.36;35.86;100003.13;15538578;28;20061;-73
2022/04/09 12:25:40;;;;;;;1999.90;999.90;;;;;;;13.28;38.59;100006.44;15552885;28;20402;-73
2022/04/09 12:33:13;;;;;;;1999.90;999.90;;;;;;;14.07;38.92;100045.25;15555125;28;20125;-72
2022/04/09 12:40:46;;;;;;;1999.90;999.90;;;;;;;11.01;49.08;100074.00;15587431;28;20057;-72
2022/04/09 12:48:19;;;;;;;1999.90;999.90;;;;;;;16.34;40.61;100067.31;15617522;28;20046;-73
2022/04/09 12:55:52;;;;;;;;;;;;;;;18.09;35.26;100068.44;15601278;28;20115;-71
2022/04/09 13:03:26;;;;;;;1999.90;999.90;;;;;;;14.02;42.11;100049.16;15620872;28;20395;-71
2022/04/09 13:10:58;;;;;;;1999.90;999.90;;;;;;;12.74;44.74;100054.81;15619065;28;20046;-72
2022/04/09 13:18:32;;;;;;;1999.90;999.90;;;;;;;11.34;50.15;100079.38;15615928;28;20053;-72
2022/04/09 13:26:04;;;;;;;1999.90;999.90;;;;;;;11.04;56.25;100115.97;15600136;28;20182;-72
2022/04/09 13:33:37;;;;;;;1999.90;999.90;;;;;;;9.49;58.64;100113.78;15623308;28;20057;-72
2022/04/09 13:41:13;;;;;;;1999.90;999.90;;;;;;;12.86;50.50;100093.91;15590395;28;20109;-72
2022/04/09 13:48:47;;;;;;;1999.90;999.90;;;;;;;16.29;41.89;100095.84;15584080;28;20116;-73
2022/04/09 13:56:19;;;;;;;1999.90;999.90;;;;;;;16.86;39.00;100104.81;15626485;28;20194;-72
2022/04/09 14:03:53;;;;;;;1999.90;999.90;;;;;;;12.01;48.87;100109.31;15559591;28;20064;-72
2022/04/09 14:11:25;;;;;;;1999.90;999.90;;;;;;;11.77;51.72;100126.94;15553554;28;20042;-72
2022/04/09 14:18:59;;;;;;;1999.90;999.90;;;;;;;11.28;50.62;100134.69;15551280;28;20065;-71
2022/04/09 14:26:31;;;;;;;;;;;;;;;11.99;50.13;100122.03;15549481;28;20506;-72
2022/04/09 14:34:05;;;;;;;1999.90;999.90;;;;;;;11.53;50.83;100129.84;15551225;28;19987;-72
2022/04/09 14:41:38;;;;;;;1999.90;999.90;;;;;;;11.42;50.22;100128.72;15570177;28;20049;-72
2022/04/09 14:49:11;;;;;;;1999.90;999.90;;;;;;;11.93;48.71;100124.25;15616912;28;20474;-72
2022/04/09 14:56:44;;;;;;;;;;;;;;;11.94;48.98;100109.09;15613380;28;20115;-73
2022/04/09 15:04:18;;;;;;;1999.90;999.90;;;;;;;10.91;52.17;100129.13;15619321;28;19990;-71
2022/04/09 15:11:50;;;;;;;1999.90;999.90;;;;;;;10.04;59.28;100176.72;15616353;28;20045;-73
2022/04/09 15:19:24;;;;;;;1999.90;999.90;;;;;;;9.28;64.51;100252.16;15554094;28;20506;-72
2022/04/09 15:26:56;;;;;;;1999.90;999.90;;;;;;;6.87;67.62;100259.38;15527870;28;20050;-72
2022/04/09 15:34:29;;;;;;;1999.90;999.90;;;;;;;6.77;70.12;100229.97;15540408;28;20053;-70
2022/04/09 15:42:02;;;;;;;664.33;396.83;;;;;;;7.55;71.19;100235.78;15592351;28;20068;-71
2022/04/09 15:49:37;;;;;;;1999.90;999.90;;;;;;;7.96;70.39;100224.19;15559407;28;20046;-70
2022/04/09 15:57:09;;;;;;;1999.90;999.90;;;;;;;7.95;69.93;100238.41;15578875;28;20069;-71
2022/04/09 16:04:43;;;;;;;1999.90;999.90;;;;;;;8.24;68.62;100232.19;15549187;28;20046;-71
2022/04/09 16:12:16;;;;;;;1999.90;999.90;;;;;;;8.55;68.50;100268.97;15580504;28;20508;-72
2022/04/09 16:19:50;;;;;;;1999.90;999.90;;;;;;;8.55;69.24;100257.84;15507923;28;20050;-71
2022/04/09 16:27:22;;;;;;;;;;;;;;;9.10;67.63;100258.97;15559228;28;20050;-71
2022/04/09 16:34:56;;;;;;;1999.90;999.90;;;;;;;8.89;69.73;100272.78;15543919;28;20007;-71
2022/04/09 16:42:28;;;;;;;1999.90;999.90;;;;;;;8.93;68.50;100271.78;15548073;28;20072;-72
2022/04/09 16:50:02;;;;;;;1999.90;999.90;;;;;;;8.89;68.21;100276.41;15530454;28;20112;-71
2022/04/09 16:57:34;;;;;;;1999.90;999.90;;;;;;;9.19;68.06;100284.81;15553275;28;20135;-71
2022/04/09 17:05:09;;;;;;;1999.90;999.90;;;;;;;9.29;68.29;100292.78;15554019;28;20038;-72
2022/04/09 17:12:41;;;;;;;1999.90;999.90;;;;;;;8.83;67.72;100301.94;15542327;28;20669;-71
2022/04/09 17:20:15;;;;;;;1999.90;999.90;;;;;;;8.55;67.98;100296.78;15547635;28;20448;-71
2022/04/09 17:27:47;;;;;;;1999.90;999.90;;;;;;;8.83;68.16;100324.19;15522973;28;20089;-72
2022/04/09 17:35:21;;;;;;;1999.90;999.90;;;;;;;8.50;69.44;100330.28;15534839;28;20061;-71
2022/04/09 17:42:53;;;;;;;1539.55;774.67;;;;;;;7.20;71.60;100332.00;15548275;28;20076;-71
2022/04/09 17:50:31;;;;;;;1999.90;999.90;;;;;;;7.76;71.76;100319.28;15561082;28;20116;-72
2022/04/09 17:58:05;;;;;;;1999.90;999.90;;;;;;;8.08;71.15;100337.47;15552520;28;20107;-71
2022/04/09 18:05:38;;;;;;;1999.90;999.90;;;;;;;7.68;71.14;100356.16;15547119;28;20050;-70
2022/04/09 18:13:10;;;;;;;;;;;;;;;7.87;71.83;100381.72;15524999;28;20046;-71
2022/04/09 18:20:44;;;;;;;1999.90;999.90;;;;;;;7.47;71.11;100372.59;15554492;28;19925;-70
2022/04/09 18:28:16;;;;;;;1999.90;999.90;;;;;;;7.73;69.97;100379.06;15554720;28;20045;-70
2022/04/09 18:35:50;;;;;;;1999.90;999.90;;;;;;;7.81;69.64;100385.78;15553158;28;20133;-71
2022/04/09 18:43:22;;;;;;;1999.90;999.90;;;;;;;7.89;68.74;100400.84;15559222;28;20050;-71
2022/04/09 18:50:56;;;;;;;1999.90;999.90;;;;;;;7.99;69.72;100406.09;15564052;28;20302;-71
2022/04/09 18:58:30;;;;;;;;;;;;;;;7.91;69.45;100424.38;15534575;28;20046;-71
2022/04/09 19:06:04;;;;;;;1999.90;999.90;;;;;;;7.41;70.57;100432.19;15550994;28;19921;-70
2022/04/09 19:13:38;;;;;;;1999.90;999.90;;;;;;;7.21;70.38;100450.19;15547405;28;20614;-71
2022/04/09 19:21:14;;;;;;;1999.90;999.90;;;;;;;7.43;69.68;100454.91;15553619;28;20092;-73
2022/04/09 19:28:47;;;;;;;1999.90;999.90;;;;;;;7.66;68.35;100473.13;15553077;28;20073;-71
2022/04/09 19:36:23;;;;;;;1999.90;999.90;;;;;;;7.42;68.38;100467.13;15552579;28;20074;-72
2022/04/09 19:43:59;;;;;;;1999.90;999.90;;;;;;;7.30;68.78;100478.81;15526866;28;20046;-73
2022/04/09 19:51:35;;;;;;;1999.90;999.90;;;;;;;7.12;68.77;100488.97;15550833;28;20046;-75
2022/04/09 19:59:08;;;;;;;1999.90;999.90;;;;;;;7.20;68.40;100498.50;15542769;28;20458;-74
2022/04/09 20:06:43;;;;;;;1999.90;999.90;;;;;;;7.39;67.62;100507.44;15539910;28;20121;-73
2022/04/09 20:14:17;;;;;;;1999.90;999.90;;;;;;;7.32;67.33;100514.59;15551338;28;20061;-70
2022/04/09 20:21:53;;;;;;;1999.90;999.90;;;;;;;7.17;67.77;100524.09;15568494;28;20041;-69
2022/04/09 20:29:38;;;;;;;1999.90;999.90;;;;;;;6.99;68.10;100527.88;15550853;28;20300;-69
2022/04/09 20:37:21;;;;;;;1999.90;999.90;;;;;;;6.64;68.45;100533.91;15541463;28;20073;-73
2022/04/09 20:44:54;;;;;;;1999.90;999.90;;;;;;;6.73;68.11;100536.78;15555765;28;20038;-71
2022/04/09 20:52:27;;;;;;;1999.90;999.90;;;;;;;6.67;67.91;100543.59;15560953;28;20056;-71
2022/04/09 21:00:00;;;;;;;1999.90;999.90;;;;;;;6.72;67.17;100553.72;15558815;28;20495;-70
2022/04/09 21:07:34;;;;;;;1999.90;999.90;;;;;;;6.64;67.76;100569.13;15605566;23;20050;-82
2022/04/09 21:15:09;;;;;;;1999.90;999.90;;;;;;;6.15;68.62;100533.84;15588510;28;20026;-81
2022/04/09 21:22:43;;;;;;;1999.90;999.90;;;;;;;6.00;68.92;100552.44;15601710;28;20146;-82
2022/04/09 21:30:19;;;;;;;1999.90;999.90;;;;;;;6.27;68.42;100570.22;15562587;28;20048;-83
2022/04/09 21:37:53;;;;;;;1999.90;999.90;;;;;;;6.74;67.00;100599.44;15496749;23;20055;-63
2022/04/09 21:45:26;;;;;;;1999.90;999.90;;;;;;;6.39;67.74;100603.78;15493072;28;20506;-63
2022/04/09 21:52:59;;;;;;;1999.90;999.90;;;;;;;6.46;67.84;100619.97;15499248;28;20046;-63
2022/04/09 22:00:43;;;;;;;1999.90;999.90;;;;;;;6.44;67.85;100636.09;15450617;28;20493;-64
2022/04/09 22:08:18;;;;;;;1999.90;999.90;;;;;;;6.18;68.97;100633.81;15477677;28;20039;-63
2022/04/09 22:15:56;;;;;;;1999.90;999.90;;;;;;;6.06;69.32;100650.13;15500766;28;20125;-63
2022/04/09 22:23:31;;;;;;;1999.90;999.90;;;;;;;5.75;70.29;100649.78;15478339;28;20050;-63
2022/04/09 22:31:04;;;;;;;1999.90;999.90;;;;;;;5.72;70.44;100656.75;15481838;28;20038;-63
2022/04/09 22:38:40;;;;;;;1999.90;999.90;;;;;;;5.63;70.85;100652.22;15496254;28;20042;-63
2022/04/09 22:46:13;;;;;;;1999.90;999.90;;;;;;;5.47;71.23;100662.69;15496467;28;20125;-65
2022/04/09 22:53:47;;;;;;;1999.90;999.90;;;;;;;5.66;71.54;100674.56;15500248;28;20400;-65
2022/04/09 23:01:19;;;;;;;1999.90;999.90;;;;;;;5.46;71.52;100678.47;15495816;28;20448;-63
2022/04/09 23:08:52;;;;;;;1999.90;999.90;;;;;;;5.67;70.97;100680.94;15481106;28;20066;-64
2022/04/09 23:16:25;;;;;;;1999.90;999.90;;;;;;;5.38;71.04;100692.16;15475270;28;20046;-65
2022/04/09 23:24:01;;;;;;;1999.90;999.90;;;;;;;5.05;72.97;100707.84;15505155;28;20121;-64
2022/04/09 23:31:33;;;;;;;1999.90;999.90;;;;;;;5.06;72.08;100710.28;15503878;28;20137;-65
2022/04/09 23:39:07;;;;;;;1999.90;999.90;;;;;;;5.16;71.66;100714.88;15504784;28;20122;-64
2022/04/09 23:46:40;;;;;;;1999.90;999.90;;;;;;;5.16;72.34;100718.47;15470941;28;20080;-65
2022/04/09 23:54:15;;;;;;;1999.90;999.90;;;;;;;4.99;73.24;100720.06;15485186;28;20506;-65
